Station Historical Data
Daily Summary for June 16, 2017 Units:  English    Metric   Both
« Previous Day
Next Day »
Daily Weekly Monthly Yearly Custom
  High: Low: Average:
Temperature: 84.7 °F 66.2 °F 73.2 °F
Dew Point: 68.9 °F 63.2 °F 66 °F
Humidity: 91% 57% 79%
Wind Speed: 1.0mph 0.0mph 0mph
Wind Gust: 5.0mph - -
Wind- - WSW
Pressure: 29.95 in 29.83 in -
Precipitation: 0.00 in    
Historical Graphs
 
 
Tabular Data for June 16, 2017
Time Temperature Dew Point Pressure Wind Wind Speed Wind Gust Humidity Rainfall Rate (Hourly) solar Conditions
00:00 67.9 °F 64.5 °F 29.92 in Calm     89% 0.00 in WeatherDisplay:10.37 W/m2 CLR
00:10 67.7 °F 64.3 °F 29.92 in Calm     89% 0.00 in WeatherDisplay:10.37 W/m2 CLR
00:20 67.6 °F 64.6 °F 29.91 in Calm     90% 0.00 in WeatherDisplay:10.37 W/m2 CLR
00:30 67.5 °F 64.5 °F 29.91 in Calm     90% 0.00 in WeatherDisplay:10.37 W/m2 CLR
00:40 67.4 °F 64.4 °F 29.91 in Calm     90% 0.00 in WeatherDisplay:10.37 W/m2 CLR
00:50 67.3 °F 64.3 °F 29.91 in Calm     90% 0.00 in WeatherDisplay:10.37 W/m2 CLR
01:00 67.2 °F 64.2 °F 29.90 in Calm     90% 0.00 in WeatherDisplay:10.37 W/m2 CLR
01:10 67.1 °F 64.1 °F 29.91 in Calm     90% 0.00 in WeatherDisplay:10.37 W/m2 CLR
01:20 67.1 °F 64.0 °F 29.91 in Calm     90% 0.00 in WeatherDisplay:10.37 W/m2 CLR
01:30 67.1 °F 64.4 °F 29.90 in Calm     91% 0.00 in WeatherDisplay:10.37 W/m2 CLR
01:40 67.1 °F 64.1 °F 29.90 in Calm     90% 0.00 in WeatherDisplay:10.37 W/m2 CLR
01:50 67.1 °F 64.1 °F 29.91 in Calm     90% 0.00 in WeatherDisplay:10.37 W/m2 CLR
02:00 67.0 °F 64.0 °F 29.90 in Calm     90% 0.00 in WeatherDisplay:10.37 W/m2 CLR
02:10 67.0 °F 64.0 °F 29.90 in Calm     90% 0.00 in WeatherDisplay:10.37 W/m2 CLR
02:20 67.0 °F 64.0 °F 29.90 in Calm     90% 0.00 in WeatherDisplay:10.37 W/m2 CLR
02:30 67.0 °F 64.0 °F 29.90 in Calm     90% 0.00 in WeatherDisplay:10.37 W/m2 CLR
02:40 67.1 °F 64.0 °F 29.90 in Calm     90% 0.00 in WeatherDisplay:10.37 W/m2 CLR
02:50 67.0 °F 64.0 °F 29.90 in Calm     90% 0.00 in WeatherDisplay:10.37 W/m2 CLR
03:00 67.0 °F 64.0 °F 29.90 in Calm     90% 0.00 in WeatherDisplay:10.37 W/m2 CLR
03:10 67.1 °F 64.1 °F 29.90 in Calm     90% 0.00 in WeatherDisplay:10.37 W/m2 CLR
03:20 67.0 °F 64.0 °F 29.90 in Calm     90% 0.00 in WeatherDisplay:10.37 W/m2 CLR
03:30 66.2 °F 63.2 °F 29.91 in Calm     90% 0.00 in WeatherDisplay:10.37 W/m2 CLR
03:40 66.2 °F 63.2 °F 29.90 in Calm     90% 0.00 in WeatherDisplay:10.37 W/m2 CLR
03:50 66.2 °F 63.2 °F 29.90 in Calm     90% 0.00 in WeatherDisplay:10.37 W/m2 CLR
04:00 66.2 °F 63.2 °F 29.90 in Calm     90% 0.00 in WeatherDisplay:10.37 W/m2 CLR
04:10 66.2 °F 63.2 °F 29.90 in Calm     90% 0.00 in WeatherDisplay:10.37 W/m2 CLR
04:20 66.2 °F 63.2 °F 29.90 in Calm     90% 0.00 in WeatherDisplay:10.37 W/m2 CLR
04:30 66.2 °F 63.2 °F 29.90 in Calm     90% 0.00 in WeatherDisplay:10.37 W/m2 CLR
04:40 66.2 °F 63.2 °F 29.91 in Calm     90% 0.00 in WeatherDisplay:10.37 W/m2 CLR
04:50 66.2 °F 63.2 °F 29.91 in Calm     90% 0.00 in WeatherDisplay:10.37 W/m2 CLR
05:00 66.2 °F 63.2 °F 29.91 in Calm     90% 0.00 in WeatherDisplay:10.37 W/m2 CLR
05:10 66.2 °F 63.2 °F 29.91 in Calm     90% 0.00 in WeatherDisplay:10.37 W/m2 CLR
05:20 66.2 °F 63.2 °F 29.92 in Calm     90% 0.00 in WeatherDisplay:10.37 W/m2 CLR
05:30 66.2 °F 63.2 °F 29.92 in Calm     90% 0.00 in WeatherDisplay:10.37 W/m2 CLR
05:40 66.2 °F 63.2 °F 29.92 in Calm     90% 0.00 in WeatherDisplay:10.37 W/m2 CLR
05:50 66.2 °F 63.2 °F 29.92 in Calm     90% 0.00 in WeatherDisplay:10.37 W/m2 CLR
06:00 66.2 °F 63.2 °F 29.92 in Calm     90% 0.00 in WeatherDisplay:10.37 W/m2 CLR
06:10 66.2 °F 63.2 °F 29.92 in Calm     90% 0.00 in WeatherDisplay:10.37 W/m2 CLR
06:20 66.2 °F 63.2 °F 29.92 in Calm     90% 0.00 in WeatherDisplay:10.37 W/m2 CLR
06:30 66.2 °F 63.2 °F 29.92 in Calm     90% 0.00 in WeatherDisplay:10.37 W/m2 CLR
06:40 66.2 °F 63.2 °F 29.92 in Calm     90% 0.00 in WeatherDisplay:10.37 W/m2 CLR
06:50 66.2 °F 63.2 °F 29.93 in Calm     90% 0.00 in WeatherDisplay:10.37 W/m2 CLR
07:00 66.2 °F 63.2 °F 29.94 in Calm     90% 0.00 in WeatherDisplay:10.37 W/m2 CLR
07:10 66.2 °F 63.2 °F 29.94 in Calm     90% 0.00 in WeatherDisplay:10.37 W/m2 CLR
07:20 66.2 °F 63.2 °F 29.94 in Calm     90% 0.00 in WeatherDisplay:10.37 W/m2 CLR
07:30 66.2 °F 63.2 °F 29.94 in Calm     90% 0.00 in WeatherDisplay:10.37 W/m2 CLR
07:50 66.2 °F 63.2 °F 29.94 in Calm     90% 0.00 in WeatherDisplay:10.37 W/m2 CLR
08:00 66.2 °F 63.2 °F 29.95 in Calm     90% 0.00 in WeatherDisplay:10.37 W/m2 CLR
08:10 66.2 °F 63.2 °F 29.95 in Calm     90% 0.00 in WeatherDisplay:10.37 W/m2 CLR
08:20 66.2 °F 63.2 °F 29.94 in Calm     90% 0.00 in WeatherDisplay:10.37 W/m2 CLR
08:30 66.2 °F 63.2 °F 29.94 in Calm     90% 0.00 in WeatherDisplay:10.37 W/m2 CLR
08:40 66.2 °F 63.2 °F 29.94 in Calm     90% 0.00 in WeatherDisplay:10.37 W/m2 CLR
08:50 66.2 °F 63.2 °F 29.94 in Calm     90% 0.00 in WeatherDisplay:10.37 W/m2 CLR
09:00 66.2 °F 63.2 °F 29.93 in Calm     90% 0.00 in WeatherDisplay:10.37 W/m2 CLR
09:10 68.2 °F 64.8 °F 29.94 in Calm   1.0 mph 89% 0.00 in WeatherDisplay:10.37 W/m2 CLR
09:20 68.6 °F 64.6 °F 29.93 in Calm   1.0 mph 87% 0.00 in WeatherDisplay:10.37 W/m2 CLR
09:30 69.1 °F 65.0 °F 29.92 in Calm     87% 0.00 in WeatherDisplay:10.37 W/m2 CLR
09:40 69.4 °F 65.0 °F 29.92 in Calm   1.0 mph 86% 0.00 in WeatherDisplay:10.37 W/m2 CLR
09:50 70.1 °F 65.3 °F 29.92 in Calm   1.0 mph 85% 0.00 in WeatherDisplay:10.37 W/m2 CLR
10:00 70.5 °F 65.8 °F 29.92 in Calm   2.0 mph 85% 0.00 in WeatherDisplay:10.37 W/m2 CLR
10:10 70.9 °F 65.8 °F 29.93 in Calm   2.0 mph 84% 0.00 in WeatherDisplay:10.37 W/m2 CLR
10:20 70.9 °F 65.5 °F 29.92 in WSW 1.0 mph 5.0 mph 83% 0.00 in WeatherDisplay:10.37 W/m2 CLR
10:30 71.1 °F 66.0 °F 29.93 in Calm   2.0 mph 84% 0.00 in WeatherDisplay:10.37 W/m2 CLR
10:40 71.6 °F 66.5 °F 29.93 in Calm   2.0 mph 84% 0.00 in WeatherDisplay:10.37 W/m2 CLR
10:50 72.3 °F 66.8 °F 29.93 in Calm     83% 0.00 in WeatherDisplay:10.37 W/m2 CLR
11:00 72.9 °F 66.7 °F 29.93 in Calm     81% 0.00 in WeatherDisplay:10.37 W/m2 CLR
11:10 73.6 °F 66.7 °F 29.93 in Calm   2.0 mph 79% 0.00 in WeatherDisplay:10.37 W/m2 CLR
11:20 74.2 °F 67.3 °F 29.93 in Calm   1.0 mph 79% 0.00 in WeatherDisplay:10.37 W/m2 CLR
11:30 74.6 °F 66.9 °F 29.93 in Calm   1.0 mph 77% 0.00 in WeatherDisplay:10.37 W/m2 CLR
11:40 74.6 °F 66.5 °F 29.93 in Calm   1.0 mph 76% 0.00 in WeatherDisplay:10.37 W/m2 CLR
11:50 74.8 °F 67.1 °F 29.93 in Calm   2.0 mph 77% 0.00 in WeatherDisplay:10.37 W/m2 CLR
12:00 74.9 °F 67.6 °F 29.93 in Calm     78% 0.00 in WeatherDisplay:10.37 W/m2 CLR
12:10 75.1 °F 67.4 °F 29.93 in Calm   3.0 mph 77% 0.00 in WeatherDisplay:10.37 W/m2 CLR
12:20 75.5 °F 67.0 °F 29.93 in Calm   1.0 mph 75% 0.00 in WeatherDisplay:10.37 W/m2 CLR
12:30 76.2 °F 67.3 °F 29.93 in Calm   1.0 mph 74% 0.00 in WeatherDisplay:10.37 W/m2 CLR
12:40 76.7 °F 67.4 °F 29.93 in Calm   1.0 mph 73% 0.00 in WeatherDisplay:10.37 W/m2 CLR
12:50 76.5 °F 66.8 °F 29.92 in WSW 1.0 mph 3.0 mph 72% 0.00 in WeatherDisplay:10.37 W/m2 CLR
13:00 76.9 °F 67.6 °F 29.92 in Calm   1.0 mph 73% 0.00 in WeatherDisplay:10.37 W/m2 CLR
13:10 77.9 °F 67.7 °F 29.91 in Calm   2.0 mph 71% 0.00 in WeatherDisplay:10.37 W/m2 CLR
13:20 78.4 °F 67.8 °F 29.91 in Calm   1.0 mph 70% 0.00 in WeatherDisplay:10.37 W/m2 CLR
13:30 78.7 °F 68.1 °F 29.90 in Calm   2.0 mph 70% 0.00 in WeatherDisplay:10.37 W/m2 CLR
13:40 79.1 °F 68.9 °F 29.90 in Calm   2.0 mph 71% 0.00 in WeatherDisplay:10.37 W/m2 CLR
13:50 79.7 °F 68.7 °F 29.90 in Calm   1.0 mph 69% 0.00 in WeatherDisplay:10.37 W/m2 CLR
14:00 79.6 °F 68.5 °F 29.90 in Calm   2.0 mph 69% 0.00 in WeatherDisplay:10.37 W/m2 CLR
14:10 79.7 °F 68.6 °F 29.89 in Calm   1.0 mph 69% 0.00 in WeatherDisplay:10.37 W/m2 CLR
14:20 80.1 °F 67.7 °F 29.89 in Calm   1.0 mph 66% 0.00 in WeatherDisplay:10.37 W/m2 CLR
14:30 80.5 °F 68.5 °F 29.89 in Calm   1.0 mph 67% 0.00 in WeatherDisplay:10.37 W/m2 CLR
14:40 80.5 °F 68.5 °F 29.89 in Calm   1.0 mph 67% 0.00 in WeatherDisplay:10.37 W/m2 CLR
14:50 80.7 °F 68.8 °F 29.88 in Calm   2.0 mph 67% 0.00 in WeatherDisplay:10.37 W/m2 CLR
15:00 81.0 °F 67.2 °F 29.88 in Calm   5.0 mph 63% 0.00 in WeatherDisplay:10.37 W/m2 CLR
15:10 81.2 °F 68.3 °F 29.88 in Calm   1.0 mph 65% 0.00 in WeatherDisplay:10.37 W/m2 CLR
15:20 81.3 °F 67.0 °F 29.88 in Calm   2.0 mph 62% 0.00 in WeatherDisplay:10.37 W/m2 CLR
15:30 81.2 °F 68.3 °F 29.87 in Calm   2.0 mph 65% 0.00 in WeatherDisplay:10.37 W/m2 CLR
15:40 81.5 °F 67.7 °F 29.87 in Calm   2.0 mph 63% 0.00 in WeatherDisplay:10.37 W/m2 CLR
15:50 81.6 °F 68.2 °F 29.87 in Calm   2.0 mph 64% 0.00 in WeatherDisplay:10.37 W/m2 CLR
16:00 81.7 °F 67.4 °F 29.87 in West 1.0 mph 3.0 mph 62% 0.00 in WeatherDisplay:10.37 W/m2 CLR
16:10 81.8 °F 67.5 °F 29.87 in Calm   2.0 mph 62% 0.00 in WeatherDisplay:10.37 W/m2 CLR
16:20 82.0 °F 67.7 °F 29.86 in West 1.0 mph 2.0 mph 62% 0.00 in WeatherDisplay:10.37 W/m2 CLR
16:30 82.5 °F 66.7 °F 29.86 in SW 1.0 mph 3.0 mph 59% 0.00 in WeatherDisplay:10.37 W/m2 CLR
16:40 82.4 °F 68.1 °F 29.86 in Calm   2.0 mph 62% 0.00 in WeatherDisplay:10.37 W/m2 CLR
16:50 82.3 °F 68.0 °F 29.85 in Calm   2.0 mph 62% 0.00 in WeatherDisplay:10.37 W/m2 CLR
17:00 83.5 °F 67.7 °F 29.85 in SW 1.0 mph 5.0 mph 59% 0.00 in WeatherDisplay:10.37 W/m2 CLR
17:10 84.3 °F 68.4 °F 29.84 in Calm   1.0 mph 59% 0.00 in WeatherDisplay:10.37 W/m2 CLR
17:20 84.7 °F 67.8 °F 29.84 in Calm   3.0 mph 57% 0.00 in WeatherDisplay:10.37 W/m2 CLR
17:30 84.4 °F 68.0 °F 29.84 in Calm   1.0 mph 58% 0.00 in WeatherDisplay:10.37 W/m2 CLR
17:40 83.7 °F 67.3 °F 29.84 in Calm   2.0 mph 58% 0.00 in WeatherDisplay:10.37 W/m2 CLR
17:50 83.1 °F 67.8 °F 29.84 in Calm   1.0 mph 60% 0.00 in WeatherDisplay:10.37 W/m2 CLR
18:00 82.8 °F 67.5 °F 29.84 in Calm   1.0 mph 60% 0.00 in WeatherDisplay:10.37 W/m2 CLR
18:10 82.2 °F 67.8 °F 29.84 in Calm   1.0 mph 62% 0.00 in WeatherDisplay:10.37 W/m2 CLR
18:20 81.7 °F 67.4 °F 29.83 in WSW 1.0 mph 3.0 mph 62% 0.00 in WeatherDisplay:10.37 W/m2 CLR
18:30 81.7 °F 67.9 °F 29.83 in Calm   1.0 mph 63% 0.00 in WeatherDisplay:10.37 W/m2 CLR
18:40 81.4 °F 68.1 °F 29.83 in Calm   1.0 mph 64% 0.00 in WeatherDisplay:10.37 W/m2 CLR
18:50 81.0 °F 68.1 °F 29.83 in Calm   1.0 mph 65% 0.00 in WeatherDisplay:10.37 W/m2 CLR
19:00 80.7 °F 67.4 °F 29.83 in Calm     64% 0.00 in WeatherDisplay:10.37 W/m2 CLR
19:10 80.6 °F 68.2 °F 29.83 in Calm     66% 0.00 in WeatherDisplay:10.37 W/m2 CLR
19:20 80.5 °F 67.2 °F 29.84 in Calm   1.0 mph 64% 0.00 in WeatherDisplay:10.37 W/m2 CLR
19:30 80.2 °F 67.8 °F 29.84 in Calm     66% 0.00 in WeatherDisplay:10.37 W/m2 CLR
19:40 79.6 °F 68.1 °F 29.84 in Calm     68% 0.00 in WeatherDisplay:10.37 W/m2 CLR
19:50 79.0 °F 68.0 °F 29.84 in Calm     69% 0.00 in WeatherDisplay:10.37 W/m2 CLR
20:00 78.5 °F 68.3 °F 29.84 in Calm     71% 0.00 in WeatherDisplay:10.37 W/m2 CLR
20:10 78.1 °F 68.3 °F 29.84 in Calm     72% 0.00 in WeatherDisplay:10.37 W/m2 CLR
20:20 77.7 °F 68.0 °F 29.84 in Calm     72% 0.00 in WeatherDisplay:10.37 W/m2 CLR
20:30 77.4 °F 68.1 °F 29.84 in Calm     73% 0.00 in WeatherDisplay:10.37 W/m2 CLR
20:40 77.1 °F 68.1 °F 29.84 in Calm     74% 0.00 in WeatherDisplay:10.37 W/m2 CLR
20:50 76.8 °F 67.9 °F 29.85 in Calm     74% 0.00 in WeatherDisplay:10.37 W/m2 CLR
21:00 76.4 °F 68.3 °F 29.85 in Calm     76% 0.00 in WeatherDisplay:10.37 W/m2 CLR
21:10 76.1 °F 68.4 °F 29.85 in Calm     77% 0.00 in WeatherDisplay:10.37 W/m2 CLR
21:20 75.9 °F 68.2 °F 29.85 in Calm     77% 0.00 in WeatherDisplay:10.37 W/m2 CLR
21:30 75.5 °F 68.2 °F 29.85 in Calm     78% 0.00 in WeatherDisplay:10.37 W/m2 CLR
21:40 75.1 °F 68.2 °F 29.86 in Calm     79% 0.00 in WeatherDisplay:10.37 W/m2 CLR
21:50 74.8 °F 68.2 °F 29.86 in Calm     80% 0.00 in WeatherDisplay:10.37 W/m2 CLR
22:00 74.3 °F 67.8 °F 29.86 in Calm     80% 0.00 in WeatherDisplay:10.37 W/m2 CLR
22:10 74.0 °F 67.8 °F 29.86 in Calm     81% 0.00 in WeatherDisplay:10.37 W/m2 CLR
22:20 73.8 °F 67.6 °F 29.86 in Calm     81% 0.00 in WeatherDisplay:10.37 W/m2 CLR
22:30 73.5 °F 67.7 °F 29.86 in Calm     82% 0.00 in WeatherDisplay:10.37 W/m2 CLR
22:40 73.2 °F 67.4 °F 29.86 in Calm     82% 0.00 in WeatherDisplay:10.37 W/m2 CLR
22:50 72.9 °F 67.4 °F 29.87 in Calm     83% 0.00 in WeatherDisplay:10.37 W/m2 CLR
23:00 72.6 °F 67.5 °F 29.87 in Calm     84% 0.00 in WeatherDisplay:10.37 W/m2 CLR
23:10 72.4 °F 67.6 °F 29.87 in Calm     85% 0.00 in WeatherDisplay:10.37 W/m2 CLR
23:20 72.2 °F 67.8 °F 29.87 in Calm     86% 0.00 in WeatherDisplay:10.37 W/m2 CLR
23:30 72.0 °F 67.6 °F 29.87 in Calm     86% 0.00 in WeatherDisplay:10.37 W/m2 CLR
23:40 71.8 °F 67.7 °F 29.87 in Calm     87% 0.00 in WeatherDisplay:10.37 W/m2 CLR
23:50 71.4 °F 67.4 °F 29.87 in Calm     87% 0.00 in WeatherDisplay:10.37 W/m2 CLR
Piedmont Bend
Compliments of Weather Underground - 4 mb